createdAt,value
2023-04-17T00:01:04.393Z,71.15
2023-04-17T00:03:34.122Z,72.02
2023-04-17T00:04:43.997Z,71.67
2023-04-17T00:07:09.729Z,71.70
2023-04-17T00:09:34.009Z,71.34
2023-04-17T00:11:58.434Z,71.28
2023-04-17T00:13:07.513Z,70.54
2023-04-17T00:14:17.281Z,70.49
2023-04-17T00:17:01.534Z,70.20
2023-04-17T00:19:27.536Z,70.08
2023-04-17T00:20:36.560Z,69.96
2023-04-17T00:23:01.491Z,70.33
2023-04-17T00:25:29.013Z,70.54
2023-04-17T00:26:38.302Z,70.76
2023-04-17T00:29:04.548Z,70.68
2023-04-17T00:30:14.370Z,70.09
2023-04-17T00:31:24.085Z,70.14
2023-04-17T00:32:35.761Z,70.33
2023-04-17T00:33:46.848Z,70.59
2023-04-17T00:34:56.527Z,71.09
2023-04-17T00:37:24.178Z,71.11
2023-04-17T00:38:33.074Z,71.27
2023-04-17T00:41:18.917Z,71.24
2023-04-17T00:43:45.232Z,70.78
2023-04-17T00:46:09.976Z,70.64
2023-04-17T00:47:22.847Z,70.31
2023-04-17T00:48:35.486Z,70.50
2023-04-17T00:51:03.787Z,70.51
2023-04-17T00:53:32.308Z,70.22
2023-04-17T00:56:00.547Z,70.08
2023-04-17T00:57:10.417Z,69.88
2023-04-17T00:59:39.705Z,70.10
2023-04-17T01:02:04.875Z,69.47
2023-04-17T01:03:14.319Z,70.10
2023-04-17T01:05:39.953Z,70.26
2023-04-17T01:06:53.445Z,70.83
2023-04-17T01:09:18.526Z,70.36
2023-04-17T01:11:43.336Z,69.42
2023-04-17T01:14:21.713Z,69.83
2023-04-17T01:15:31.791Z,69.26
2023-04-17T01:18:00.364Z,69.52
2023-04-17T01:19:10.481Z,69.69
2023-04-17T01:20:21.453Z,69.88
2023-04-17T01:21:31.781Z,70.47
2023-04-17T01:22:41.023Z,71.09
2023-04-17T01:25:09.374Z,71.59
2023-04-17T01:27:38.967Z,71.92
2023-04-17T01:30:12.181Z,71.45
2023-04-17T01:31:28.546Z,71.43
2023-04-17T01:32:37.940Z,71.11
2023-04-17T01:35:02.941Z,69.94
2023-04-17T01:37:30.192Z,70.17
2023-04-17T01:39:57.386Z,69.99
2023-04-17T01:42:26.262Z,70.30
2023-04-17T01:44:55.113Z,70.07
2023-04-17T01:46:04.878Z,70.03
2023-04-17T01:47:14.592Z,70.10
2023-04-17T01:48:23.254Z,70.31
2023-04-17T01:50:48.256Z,70.07
2023-04-17T01:53:13.036Z,69.93
2023-04-17T01:55:42.247Z,69.91
2023-04-17T01:56:52.320Z,69.42
2023-04-17T01:58:02.059Z,69.48
2023-04-17T01:59:12.010Z,69.56
2023-04-17T02:00:22.875Z,69.89
2023-04-17T02:02:47.510Z,70.01
2023-04-17T02:03:57.661Z,70.38
2023-04-17T02:06:23.529Z,70.98
2023-04-17T02:08:48.707Z,71.19
2023-04-17T02:09:58.503Z,71.46
2023-04-17T02:12:23.875Z,71.02
2023-04-17T02:14:49.783Z,70.74
2023-04-17T02:15:59.790Z,70.36
2023-04-17T02:18:28.805Z,69.62
2023-04-17T02:19:38.109Z,69.01
2023-04-17T02:22:01.835Z,69.39
2023-04-17T02:23:12.830Z,68.92
2023-04-17T02:24:21.427Z,69.27
2023-04-17T02:25:31.525Z,69.58
2023-04-17T02:26:41.476Z,70.03
2023-04-17T02:29:06.458Z,70.87
2023-04-17T02:31:31.643Z,71.13
2023-04-17T02:33:56.755Z,70.54
2023-04-17T02:36:23.903Z,70.50
2023-04-17T02:38:50.310Z,69.71
2023-04-17T02:41:15.552Z,69.28
2023-04-17T02:43:39.904Z,69.83
2023-04-17T02:46:06.190Z,70.75
2023-04-17T02:48:29.807Z,71.11
2023-04-17T02:49:41.605Z,70.61
2023-04-17T02:52:05.523Z,70.63
2023-04-17T02:53:14.534Z,70.75
2023-04-17T02:55:39.760Z,70.13
2023-04-17T02:58:07.365Z,69.38
2023-04-17T03:00:32.951Z,69.67
2023-04-17T03:02:58.406Z,69.61
2023-04-17T03:05:25.244Z,69.95
2023-04-17T03:08:12.914Z,70.09
2023-04-17T03:09:28.797Z,70.61
2023-04-17T03:10:39.797Z,70.31
2023-04-17T03:13:05.806Z,70.01
2023-04-17T03:14:15.709Z,69.61
2023-04-17T03:15:24.670Z,69.84
2023-04-17T03:16:34.741Z,69.22
2023-04-17T03:19:03.320Z,68.52
2023-04-17T03:21:29.212Z,68.91
2023-04-17T03:23:53.674Z,69.50
2023-04-17T03:26:18.978Z,69.26
2023-04-17T03:27:30.407Z,69.64
2023-04-17T03:28:40.314Z,69.17
2023-04-17T03:31:04.560Z,69.22
2023-04-17T03:32:14.769Z,69.40
2023-04-17T03:33:26.280Z,68.94
2023-04-17T03:35:52.592Z,68.91
2023-04-17T03:37:03.408Z,68.46
2023-04-17T03:38:13.297Z,68.66
2023-04-17T03:39:31.853Z,68.72
2023-04-17T03:40:44.270Z,68.77
2023-04-17T03:43:09.037Z,68.38
2023-04-17T03:45:34.251Z,68.18
2023-04-17T03:46:45.305Z,68.10
2023-04-17T03:47:55.899Z,68.41
2023-04-17T03:49:05.887Z,68.34
2023-04-17T03:51:31.154Z,67.68
2023-04-17T03:53:59.016Z,67.32
2023-04-17T03:56:24.266Z,67.86
2023-04-17T03:58:51.278Z,68.13
2023-04-17T04:01:15.930Z,67.73
2023-04-17T04:02:27.395Z,67.03
2023-04-17T04:04:54.133Z,67.35
2023-04-17T04:07:22.729Z,67.32
2023-04-17T04:09:48.150Z,67.17
2023-04-17T04:12:14.749Z,66.52
2023-04-17T04:14:43.266Z,66.40
2023-04-17T04:15:53.169Z,66.41
2023-04-17T04:17:03.853Z,66.41
2023-04-17T04:18:12.952Z,65.92
2023-04-17T04:19:22.173Z,66.18
2023-04-17T04:20:32.652Z,66.45
2023-04-17T04:21:44.632Z,66.26
2023-04-17T04:22:57.846Z,66.21
2023-04-17T04:24:08.133Z,66.07
2023-04-17T04:26:35.820Z,66.06
2023-04-17T04:27:50.401Z,66.02
2023-04-17T04:29:00.984Z,65.79
2023-04-17T04:31:51.915Z,64.98
2023-04-17T04:34:18.708Z,64.51
2023-04-17T04:36:46.319Z,63.99
2023-04-17T04:39:16.245Z,63.96
2023-04-17T04:41:44.975Z,63.72
2023-04-17T04:44:11.821Z,62.84
2023-04-17T04:46:37.118Z,62.39
2023-04-17T04:47:47.381Z,62.59
2023-04-17T04:50:11.004Z,62.29
2023-04-17T04:52:35.233Z,61.88
2023-04-17T04:55:01.458Z,61.72
2023-04-17T04:57:40.514Z,61.05
2023-04-17T04:58:50.768Z,60.63
2023-04-17T05:00:01.392Z,61.36
2023-04-17T05:01:36.269Z,61.17
2023-04-17T05:04:00.776Z,60.79
2023-04-17T05:05:12.531Z,61.14
2023-04-17T05:06:21.454Z,60.64
2023-04-17T05:07:36.004Z,60.54
2023-04-17T05:10:00.237Z,60.69
2023-04-17T05:11:10.521Z,60.56
2023-04-17T05:13:38.923Z,60.35
2023-04-17T05:14:49.746Z,59.79
2023-04-17T05:17:15.258Z,59.82
2023-04-17T05:19:41.318Z,60.02
2023-04-17T05:20:52.025Z,60.30
2023-04-17T05:23:21.786Z,59.91
2023-04-17T05:25:47.500Z,58.79
2023-04-17T05:26:57.913Z,58.48
2023-04-17T05:29:29.226Z,58.18
2023-04-17T05:31:56.078Z,58.42
2023-04-17T05:33:07.561Z,58.48
2023-04-17T05:35:41.822Z,58.20
2023-04-17T05:38:07.501Z,57.72
2023-04-17T05:40:31.385Z,57.06
2023-04-17T05:42:55.855Z,57.61
2023-04-17T05:44:06.553Z,57.59
2023-04-17T05:46:33.255Z,57.43
2023-04-17T05:47:43.015Z,57.24
2023-04-17T05:50:09.375Z,57.85
2023-04-17T05:52:33.320Z,56.91
2023-04-17T05:53:45.311Z,56.67
2023-04-17T05:56:11.082Z,56.68
2023-04-17T05:57:20.023Z,56.46
2023-04-17T05:59:45.003Z,55.77
2023-04-17T06:02:11.392Z,56.31
2023-04-17T06:03:21.662Z,56.75
2023-04-17T06:04:33.080Z,56.84
2023-04-17T06:06:57.190Z,57.50
2023-04-17T06:09:23.947Z,58.20
2023-04-17T06:10:34.678Z,58.17
2023-04-17T06:11:43.420Z,58.42
2023-04-17T06:12:52.774Z,58.16
2023-04-17T06:14:02.922Z,57.88
2023-04-17T06:16:28.992Z,57.80
2023-04-17T06:18:55.438Z,57.86
2023-04-17T06:20:11.036Z,58.25
2023-04-17T06:22:39.887Z,59.70
2023-04-17T06:23:50.367Z,59.86
2023-04-17T06:26:14.465Z,58.28
2023-04-17T06:28:39.297Z,57.62
2023-04-17T06:31:03.598Z,56.45
2023-04-17T06:33:27.769Z,56.16
2023-04-17T06:34:46.034Z,56.30
2023-04-17T06:37:03.988Z,56.63
2023-04-17T06:39:28.612Z,57.24
2023-04-17T06:41:53.784Z,56.58
2023-04-17T06:44:20.117Z,56.06
2023-04-17T06:46:45.504Z,55.94
2023-04-17T06:49:09.457Z,55.60
2023-04-17T06:51:34.219Z,53.60
2023-04-17T06:52:44.496Z,53.70
2023-04-17T06:55:11.082Z,53.31
2023-04-17T06:56:20.734Z,53.01
2023-04-17T06:57:29.846Z,53.02
2023-04-17T06:59:55.879Z,53.03
2023-04-17T07:02:22.031Z,53.40
2023-04-17T07:03:31.782Z,53.76
2023-04-17T07:05:58.162Z,54.24
2023-04-17T07:08:24.184Z,54.14
2023-04-17T07:09:33.370Z,54.38
2023-04-17T07:11:58.173Z,54.09
2023-04-17T07:14:22.504Z,53.54
2023-04-17T07:15:31.170Z,53.58
2023-04-17T07:17:56.661Z,53.35
2023-04-17T07:19:06.737Z,53.35
2023-04-17T07:20:17.192Z,53.11
2023-04-17T07:22:42.526Z,53.20
2023-04-17T07:25:09.048Z,53.92
2023-04-17T07:26:18.862Z,52.91
2023-04-17T07:27:27.987Z,51.99
2023-04-17T07:28:38.225Z,52.54
2023-04-17T07:31:07.466Z,52.92
2023-04-17T07:33:31.918Z,52.89
2023-04-17T07:34:42.042Z,52.79
2023-04-17T07:35:51.187Z,53.02
2023-04-17T07:38:35.671Z,53.21
2023-04-17T07:41:07.291Z,52.70
2023-04-17T07:43:33.112Z,52.73
2023-04-17T07:45:58.652Z,51.97
2023-04-17T07:48:23.310Z,52.42
2023-04-17T07:52:05.644Z,52.48
2023-04-17T07:54:33.230Z,52.79
2023-04-17T07:57:18.220Z,53.36
2023-04-17T07:59:42.182Z,53.13
2023-04-17T08:02:07.718Z,53.53
2023-04-17T08:04:32.717Z,53.66
2023-04-17T08:07:02.997Z,53.48
2023-04-17T08:09:30.224Z,53.39
2023-04-17T08:11:57.870Z,53.53
2023-04-17T08:14:23.144Z,52.75
2023-04-17T08:16:49.733Z,51.59
2023-04-17T08:19:13.988Z,51.75
2023-04-17T08:20:24.888Z,50.49
2023-04-17T08:24:00.683Z,50.33
2023-04-17T08:26:26.830Z,49.78
2023-04-17T08:28:54.134Z,50.40
2023-04-17T08:31:23.939Z,50.94
2023-04-17T08:34:10.459Z,50.09
2023-04-17T08:35:12.167Z,49.85
2023-04-17T08:37:37.797Z,50.51
2023-04-17T08:40:11.215Z,50.90
2023-04-17T08:42:41.618Z,50.36
2023-04-17T08:45:12.336Z,49.74
2023-04-17T08:47:42.096Z,49.83
2023-04-17T08:50:16.234Z,50.61
2023-04-17T08:52:45.827Z,50.45
2023-04-17T08:55:19.474Z,49.89
2023-04-17T08:58:05.507Z,49.99
2023-04-17T09:00:34.004Z,49.56
2023-04-17T09:03:21.696Z,49.28
2023-04-17T09:06:22.791Z,50.28
2023-04-17T09:08:59.914Z,49.98
2023-04-17T09:10:09.001Z,50.28
2023-04-17T09:11:18.840Z,50.45
2023-04-17T09:13:43.278Z,50.67
2023-04-17T09:16:22.571Z,50.00
2023-04-17T09:18:50.095Z,50.93
2023-04-17T09:21:28.488Z,50.32
2023-04-17T09:23:59.646Z,50.02
2023-04-17T09:26:33.933Z,50.83
2023-04-17T09:29:09.512Z,50.69
2023-04-17T09:31:36.973Z,50.22
2023-04-17T09:34:12.409Z,50.00
2023-04-17T09:36:44.333Z,49.81
2023-04-17T09:39:21.205Z,49.38
2023-04-17T09:42:04.219Z,49.21
2023-04-17T09:43:13.259Z,48.80
2023-04-17T09:45:44.942Z,48.55
2023-04-17T09:48:12.555Z,48.62
2023-04-17T09:51:03.494Z,46.58
2023-04-17T09:52:14.472Z,46.68
2023-04-17T09:54:41.165Z,46.79
2023-04-17T09:57:08.869Z,47.06
2023-04-17T09:58:18.078Z,47.60
2023-04-17T10:00:43.661Z,47.18
2023-04-17T10:03:17.795Z,46.03
2023-04-17T10:05:46.055Z,46.46
2023-04-17T10:08:13.751Z,45.87
2023-04-17T10:09:29.321Z,45.09
2023-04-17T10:11:57.094Z,45.56
2023-04-17T10:14:36.931Z,46.12
2023-04-17T10:18:42.444Z,46.00
2023-04-17T10:21:21.549Z,46.42
2023-04-17T10:23:48.514Z,46.23
2023-04-17T10:26:35.257Z,45.63
2023-04-17T10:29:01.061Z,46.50
2023-04-17T10:32:07.724Z,47.50
2023-04-17T10:34:39.277Z,46.46
2023-04-17T10:35:53.185Z,46.80
2023-04-17T10:38:36.453Z,46.10
2023-04-17T10:41:19.971Z,46.54
2023-04-17T10:42:30.157Z,46.46
2023-04-17T10:43:42.256Z,45.59
2023-04-17T10:44:56.276Z,44.58
2023-04-17T10:47:33.069Z,45.25
2023-04-17T10:50:10.416Z,45.77
2023-04-17T10:51:28.704Z,45.48
2023-04-17T10:52:42.499Z,45.28
2023-04-17T10:53:54.846Z,44.58
2023-04-17T10:56:41.987Z,43.87
2023-04-17T10:59:20.782Z,42.65
2023-04-17T11:02:00.895Z,40.09
2023-04-17T11:03:14.938Z,39.12
2023-04-17T11:05:46.438Z,39.89
2023-04-17T11:08:12.077Z,40.28
2023-04-17T11:10:38.393Z,40.64
2023-04-17T11:11:47.355Z,39.54
2023-04-17T11:12:57.284Z,40.29
2023-04-17T11:15:27.442Z,40.84
2023-04-17T11:17:58.797Z,41.23
2023-04-17T11:20:33.458Z,39.75
2023-04-17T11:23:04.579Z,38.56
2023-04-17T11:25:30.970Z,39.93
2023-04-17T11:26:45.951Z,39.80
2023-04-17T11:27:56.745Z,38.24
2023-04-17T11:29:08.117Z,37.56
2023-04-17T11:32:11.312Z,37.55
2023-04-17T11:34:36.516Z,36.06
2023-04-17T11:37:01.960Z,37.03
2023-04-17T11:38:21.622Z,37.39
2023-04-17T11:40:56.120Z,35.31
2023-04-17T11:42:05.562Z,36.75
2023-04-17T11:43:15.644Z,36.70
2023-04-17T11:45:43.495Z,36.69
2023-04-17T11:48:13.774Z,35.37
2023-04-17T11:50:51.469Z,35.83
2023-04-17T11:53:19.886Z,35.98
2023-04-17T11:54:33.383Z,34.50
2023-04-17T11:55:43.470Z,34.27
2023-04-17T11:58:18.639Z,34.49
2023-04-17T12:01:07.212Z,34.96
2023-04-17T12:03:36.121Z,35.45
2023-04-17T12:04:45.914Z,35.14
2023-04-17T12:06:02.304Z,35.99
2023-04-17T12:09:39.466Z,35.87
2023-04-17T12:10:48.515Z,35.32
2023-04-17T12:13:15.148Z,35.86
2023-04-17T12:15:39.021Z,35.13
2023-04-17T12:16:49.984Z,35.34
2023-04-17T12:18:00.470Z,35.28
2023-04-17T12:19:10.996Z,35.17
2023-04-17T12:20:20.932Z,35.31
2023-04-17T12:22:45.805Z,35.44
2023-04-17T12:25:11.001Z,36.49
2023-04-17T12:27:37.118Z,34.90
2023-04-17T12:28:46.361Z,35.19
2023-04-17T12:31:11.126Z,35.20
2023-04-17T12:33:35.284Z,35.72
2023-04-17T12:36:02.343Z,35.81
2023-04-17T12:38:26.857Z,35.65
2023-04-17T12:40:51.034Z,35.59
2023-04-17T12:42:00.587Z,35.86
2023-04-17T12:44:27.710Z,36.13
2023-04-17T12:46:51.716Z,36.27
2023-04-17T12:49:16.246Z,34.21
2023-04-17T12:51:46.363Z,35.13
2023-04-17T12:56:34.271Z,34.59
2023-04-17T12:57:43.483Z,34.37
2023-04-17T13:00:09.589Z,33.53
2023-04-17T13:01:18.426Z,34.17
2023-04-17T13:03:42.669Z,34.32
2023-04-17T13:06:07.491Z,34.18
2023-04-17T13:08:35.141Z,34.91
2023-04-17T13:11:04.032Z,34.57
2023-04-17T13:13:30.384Z,34.99
2023-04-17T13:14:40.508Z,34.79
2023-04-17T13:17:05.728Z,34.23
2023-04-17T13:19:34.646Z,33.26
2023-04-17T13:21:58.774Z,33.56
2023-04-17T13:24:22.547Z,34.04
2023-04-17T13:26:47.797Z,34.96
2023-04-17T13:29:11.778Z,34.32
2023-04-17T13:30:21.571Z,34.61
2023-04-17T13:32:46.640Z,34.54
2023-04-17T13:35:14.638Z,34.17
2023-04-17T13:37:40.069Z,34.56
2023-04-17T13:40:09.501Z,34.20
2023-04-17T13:42:33.610Z,33.82
2023-04-17T13:44:57.595Z,34.63
2023-04-17T13:47:23.975Z,36.12
2023-04-17T13:49:49.437Z,36.12
2023-04-17T13:52:14.427Z,36.31
2023-04-17T13:54:40.536Z,36.02
2023-04-17T13:55:50.812Z,36.15
2023-04-17T13:58:15.599Z,35.71
2023-04-17T14:00:40.108Z,36.06
2023-04-17T14:03:05.279Z,36.06
2023-04-17T14:05:29.587Z,36.76
2023-04-17T14:07:53.958Z,37.00
2023-04-17T14:10:18.376Z,36.52
2023-04-17T14:11:28.786Z,36.50
2023-04-17T14:12:39.412Z,36.26
2023-04-17T14:15:06.882Z,36.61
2023-04-17T14:17:35.719Z,36.82
2023-04-17T14:20:06.289Z,36.08
2023-04-17T14:22:31.291Z,36.57
2023-04-17T14:26:05.214Z,36.57
2023-04-17T14:28:30.226Z,36.71
2023-04-17T14:30:53.933Z,36.70
2023-04-17T14:33:18.707Z,35.47
2023-04-17T14:35:42.811Z,35.21
2023-04-17T14:38:26.716Z,35.60
2023-04-17T14:40:52.795Z,36.09
2023-04-17T14:43:17.096Z,35.34
2023-04-17T14:45:41.632Z,36.69
2023-04-17T14:48:07.087Z,36.99
2023-04-17T14:50:33.034Z,37.15
2023-04-17T14:52:58.220Z,36.51
2023-04-17T14:55:23.317Z,36.46
2023-04-17T14:57:50.446Z,36.24
2023-04-17T15:00:16.481Z,36.08
2023-04-17T15:01:25.312Z,36.40
2023-04-17T15:03:53.084Z,36.71
2023-04-17T15:06:18.778Z,37.21
2023-04-17T15:08:42.515Z,37.36
2023-04-17T15:11:07.005Z,37.37
2023-04-17T15:12:16.035Z,37.21
2023-04-17T15:14:41.749Z,37.60
2023-04-17T15:17:06.560Z,37.66
2023-04-17T15:18:18.423Z,37.89
2023-04-17T15:19:27.750Z,37.83
2023-04-17T15:20:37.089Z,37.94
2023-04-17T15:23:00.760Z,38.23
2023-04-17T15:25:25.981Z,38.13
2023-04-17T15:26:38.654Z,37.56
2023-04-17T15:29:22.501Z,38.04
2023-04-17T15:31:46.390Z,38.00
2023-04-17T15:34:12.516Z,37.92
2023-04-17T15:35:21.147Z,38.18
2023-04-17T15:36:31.359Z,38.41
2023-04-17T15:37:41.375Z,38.45
2023-04-17T15:38:51.222Z,38.66
2023-04-17T15:41:15.398Z,39.11
2023-04-17T15:42:24.062Z,39.10
2023-04-17T15:43:32.838Z,39.27
2023-04-17T15:44:42.153Z,39.01
2023-04-17T15:45:58.885Z,39.24
2023-04-17T15:47:09.744Z,39.16
2023-04-17T15:49:33.600Z,39.31
2023-04-17T15:52:01.558Z,39.47
2023-04-17T15:54:27.241Z,39.24
2023-04-17T15:56:52.758Z,39.56
2023-04-17T15:59:17.594Z,39.60
2023-04-17T16:01:43.851Z,39.89
2023-04-17T16:02:52.799Z,39.52
2023-04-17T16:05:18.258Z,39.38
2023-04-17T16:07:42.917Z,39.65
2023-04-17T16:08:52.783Z,39.62
2023-04-17T16:11:17.469Z,39.66
2023-04-17T16:12:27.761Z,39.50
2023-04-17T16:14:52.965Z,39.71
2023-04-17T16:16:02.836Z,39.83
2023-04-17T16:18:27.043Z,39.90
2023-04-17T16:20:51.510Z,40.02
2023-04-17T16:23:16.240Z,40.05
2023-04-17T16:25:47.101Z,40.21
2023-04-17T16:28:13.967Z,40.35
2023-04-17T16:30:43.122Z,40.13
2023-04-17T16:33:12.681Z,39.74
2023-04-17T16:35:37.897Z,39.53
2023-04-17T16:38:02.384Z,39.41
2023-04-17T16:40:26.082Z,39.43
2023-04-17T16:42:50.627Z,39.22
2023-04-17T16:45:14.105Z,39.16
2023-04-17T16:46:35.513Z,38.65
2023-04-17T16:49:15.149Z,38.63
2023-04-17T16:51:40.223Z,39.17
2023-04-17T16:54:07.063Z,39.49
2023-04-17T16:55:16.452Z,39.41
2023-04-17T16:57:43.628Z,39.35
2023-04-17T17:00:10.489Z,39.37
2023-04-17T17:02:34.210Z,39.40
2023-04-17T17:05:00.740Z,39.56
2023-04-17T17:07:25.620Z,39.47
2023-04-17T17:08:34.251Z,39.55
2023-04-17T17:10:57.704Z,39.38
2023-04-17T17:13:23.195Z,40.08
2023-04-17T17:15:47.778Z,40.12
2023-04-17T17:18:11.564Z,40.14
2023-04-17T17:19:21.269Z,40.06
2023-04-17T17:21:45.337Z,40.11
2023-04-17T17:22:53.933Z,40.38
2023-04-17T17:24:03.716Z,40.91
2023-04-17T17:26:27.765Z,40.66
2023-04-17T17:28:52.900Z,40.85
2023-04-17T17:31:17.042Z,40.15
2023-04-17T17:32:26.365Z,40.29
2023-04-17T17:34:52.597Z,40.75
2023-04-17T17:37:18.328Z,40.29
2023-04-17T17:39:42.980Z,40.51
2023-04-17T17:42:09.521Z,41.07
2023-04-17T17:44:35.007Z,40.81
2023-04-17T17:46:59.436Z,40.73
2023-04-17T17:48:09.643Z,40.70
2023-04-17T17:49:18.867Z,41.17
2023-04-17T17:51:44.451Z,40.36
2023-04-17T17:54:08.794Z,40.57
2023-04-17T17:56:33.873Z,40.10
2023-04-17T17:57:49.490Z,40.91
2023-04-17T18:00:12.964Z,41.03
2023-04-17T18:02:38.564Z,40.82
2023-04-17T18:05:02.555Z,41.31
2023-04-17T18:07:26.632Z,41.44
2023-04-17T18:09:51.902Z,41.69
2023-04-17T18:11:01.572Z,41.65
2023-04-17T18:13:27.352Z,41.61
2023-04-17T18:15:51.903Z,41.66
2023-04-17T18:17:01.647Z,41.26
2023-04-17T18:19:25.870Z,41.32
2023-04-17T18:21:54.725Z,41.13
2023-04-17T18:24:20.017Z,41.17
2023-04-17T18:26:43.482Z,41.11
2023-04-17T18:27:52.938Z,41.23
2023-04-17T18:29:10.009Z,41.19
2023-04-17T18:30:18.868Z,41.25
2023-04-17T18:32:42.677Z,41.27
2023-04-17T18:35:08.010Z,41.42
2023-04-17T18:36:17.962Z,41.64
2023-04-17T18:37:27.703Z,41.88
2023-04-17T18:38:36.250Z,41.78
2023-04-17T18:41:00.975Z,41.81
2023-04-17T18:42:10.093Z,41.86
2023-04-17T18:44:33.726Z,42.06
2023-04-17T18:45:42.607Z,41.91
2023-04-17T18:48:08.388Z,41.92
2023-04-17T18:50:33.628Z,42.08
2023-04-17T18:53:05.325Z,41.97
2023-04-17T18:55:35.925Z,42.03
2023-04-17T18:58:02.013Z,41.63
2023-04-17T18:59:13.381Z,41.69
2023-04-17T19:01:37.957Z,41.74
2023-04-17T19:04:04.041Z,41.90
2023-04-17T19:06:30.731Z,42.07
2023-04-17T19:07:40.356Z,41.65
2023-04-17T19:10:07.184Z,41.48
2023-04-17T19:12:31.913Z,41.66
2023-04-17T19:14:57.860Z,41.35
2023-04-17T19:17:22.929Z,41.51
2023-04-17T19:18:31.846Z,41.59
2023-04-17T19:19:41.754Z,41.40
2023-04-17T19:22:06.579Z,41.32
2023-04-17T19:23:15.406Z,41.41
2023-04-17T19:25:43.941Z,41.55
2023-04-17T19:28:13.486Z,41.39
2023-04-17T19:29:23.049Z,41.27
2023-04-17T19:30:32.138Z,41.36
2023-04-17T19:31:41.505Z,41.28
2023-04-17T19:34:08.362Z,41.04
2023-04-17T19:36:32.961Z,41.17
2023-04-17T19:38:59.155Z,41.25
2023-04-17T19:41:24.244Z,41.27
2023-04-17T19:42:33.780Z,41.38
2023-04-17T19:45:01.335Z,41.46
2023-04-17T19:46:11.128Z,41.45
2023-04-17T19:47:20.212Z,41.27
2023-04-17T19:49:45.479Z,41.41
2023-04-17T19:50:55.202Z,41.15
2023-04-17T19:53:40.635Z,41.61
2023-04-17T19:56:08.657Z,41.87
2023-04-17T19:58:34.004Z,42.04
2023-04-17T20:00:59.082Z,41.98
2023-04-17T20:02:08.652Z,41.86
2023-04-17T20:03:19.720Z,41.91
2023-04-17T20:05:44.230Z,41.93
2023-04-17T20:08:08.864Z,41.70
2023-04-17T20:10:35.135Z,41.47
2023-04-17T20:12:58.957Z,41.92
2023-04-17T20:14:09.259Z,41.89
2023-04-17T20:15:20.037Z,41.84
2023-04-17T20:17:46.010Z,41.36
2023-04-17T20:18:56.381Z,41.51
2023-04-17T20:21:22.307Z,41.18
2023-04-17T20:22:31.392Z,41.65
2023-04-17T20:24:56.634Z,41.61
2023-04-17T20:27:20.181Z,41.85
2023-04-17T20:29:44.990Z,42.02
2023-04-17T20:32:15.288Z,41.35
2023-04-17T20:34:39.343Z,41.81
2023-04-17T20:35:48.970Z,41.63
2023-04-17T20:36:58.587Z,41.79
2023-04-17T20:39:22.813Z,41.63
2023-04-17T20:41:48.132Z,42.10
2023-04-17T20:44:15.793Z,42.19
2023-04-17T20:46:42.498Z,41.78
2023-04-17T20:49:06.789Z,41.85
2023-04-17T20:51:52.524Z,41.83
2023-04-17T20:54:16.238Z,42.01
2023-04-17T20:56:40.897Z,42.38
2023-04-17T20:59:04.838Z,42.43
2023-04-17T21:42:11.308Z,41.99
2023-04-17T21:44:36.723Z,42.05
2023-04-17T21:45:47.392Z,41.88
2023-04-17T21:46:56.847Z,42.01
2023-04-17T21:48:05.674Z,42.10
2023-04-17T21:49:14.669Z,41.81
2023-04-17T21:51:39.645Z,42.11
2023-04-17T21:52:49.199Z,42.08
2023-04-17T21:55:14.068Z,42.55
2023-04-17T21:57:39.679Z,42.13
2023-04-17T22:00:07.370Z,42.33
2023-04-17T22:02:31.656Z,42.37
2023-04-17T22:03:41.591Z,42.74
2023-04-17T22:06:06.389Z,42.96
2023-04-17T22:08:31.896Z,42.79
2023-04-17T22:09:40.487Z,43.15
2023-04-17T22:13:30.470Z,43.86
2023-04-17T22:15:58.512Z,43.54
2023-04-17T22:18:28.584Z,43.73
2023-04-17T22:20:54.374Z,43.87
2023-04-17T22:23:17.921Z,43.91
2023-04-17T22:24:26.503Z,43.98
2023-04-17T22:26:51.766Z,43.64
2023-04-17T22:29:15.190Z,43.87
2023-04-17T22:30:24.999Z,43.83
2023-04-17T22:32:48.486Z,43.88
2023-04-17T22:33:58.406Z,43.79
2023-04-17T22:36:23.675Z,44.16
2023-04-17T22:38:47.852Z,44.38
2023-04-17T22:41:11.760Z,44.34
2023-04-17T22:42:20.923Z,44.25
2023-04-17T22:44:45.761Z,44.17
2023-04-17T22:47:10.957Z,44.06
2023-04-17T22:49:40.417Z,44.31
2023-04-17T22:53:16.712Z,43.88
2023-04-17T22:54:26.486Z,44.22
2023-04-17T22:56:51.529Z,44.19
2023-04-17T22:58:03.018Z,44.13
2023-04-17T22:59:13.598Z,44.10
2023-04-17T23:01:39.438Z,44.11
2023-04-17T23:04:06.021Z,44.25
2023-04-17T23:05:16.337Z,44.36
2023-04-17T23:07:41.454Z,44.30
2023-04-17T23:10:07.072Z,44.19
2023-04-17T23:12:32.382Z,44.28
2023-04-17T23:13:42.634Z,44.33
2023-04-17T23:16:09.708Z,44.26
2023-04-17T23:18:37.034Z,43.75
2023-04-17T23:19:46.142Z,43.35
2023-04-17T23:20:56.299Z,42.98
2023-04-17T23:23:23.859Z,43.65
2023-04-17T23:24:34.412Z,43.21
2023-04-17T23:25:43.602Z,42.59
2023-04-17T23:28:11.833Z,43.16
2023-04-17T23:29:21.747Z,43.62
2023-04-17T23:31:46.824Z,43.01
2023-04-17T23:34:11.698Z,43.80
2023-04-17T23:36:58.969Z,43.23
2023-04-17T23:39:23.220Z,43.49
2023-04-17T23:41:51.421Z,43.46
2023-04-17T23:44:17.659Z,44.07
2023-04-17T23:45:27.277Z,43.53
2023-04-17T23:47:53.035Z,43.72
2023-04-17T23:49:03.715Z,44.03
2023-04-17T23:51:28.142Z,43.12
2023-04-17T23:53:51.777Z,43.24
2023-04-17T23:55:01.624Z,43.53
2023-04-17T23:57:25.851Z,43.46
2023-04-17T23:59:51.468Z,43.15
